createdAt,value
2018-02-08T00:00:13.688Z,100889.78
2018-02-08T00:01:16.230Z,100885.42
2018-02-08T00:02:18.738Z,100888.95
2018-02-08T00:03:21.228Z,100886.34
2018-02-08T00:04:23.735Z,100888.42
2018-02-08T00:05:26.210Z,100890.00
2018-02-08T00:06:28.678Z,100892.59
2018-02-08T00:07:31.160Z,100892.25
2018-02-08T00:08:33.653Z,100889.86
2018-02-08T00:09:36.122Z,100887.60
2018-02-08T00:10:38.606Z,100884.48
2018-02-08T00:11:41.080Z,100888.02
2018-02-08T00:12:43.568Z,100885.03
2018-02-08T00:13:46.045Z,100883.03
2018-02-08T00:14:48.529Z,100885.70
2018-02-08T00:15:50.998Z,100884.59
2018-02-08T00:16:53.476Z,100884.82
2018-02-08T00:17:55.964Z,100889.02
2018-02-08T00:18:58.449Z,100885.44
2018-02-08T00:20:00.964Z,100885.61
2018-02-08T00:21:03.438Z,100883.83
2018-02-08T00:22:05.983Z,100883.28
2018-02-08T00:23:08.488Z,100875.88
2018-02-08T00:24:10.958Z,100890.59
2018-02-08T00:25:13.444Z,100886.67
2018-02-08T00:26:15.919Z,100889.66
2018-02-08T00:27:18.402Z,100886.73
2018-02-08T00:28:20.889Z,100888.09
2018-02-08T00:29:23.401Z,100887.08
2018-02-08T00:30:25.904Z,100882.91
2018-02-08T00:31:28.386Z,100882.13
2018-02-08T00:32:30.884Z,100890.08
2018-02-08T00:33:33.357Z,100887.16
2018-02-08T00:34:35.826Z,100879.65
2018-02-08T00:35:38.309Z,100882.67
2018-02-08T00:36:40.797Z,100883.13
2018-02-08T00:37:43.293Z,100882.55
2018-02-08T00:38:45.763Z,100885.20
2018-02-08T00:39:48.231Z,100880.74
2018-02-08T00:40:50.707Z,100881.08
2018-02-08T00:41:53.178Z,100880.89
2018-02-08T00:42:55.665Z,100871.26
2018-02-08T00:43:58.168Z,100881.03
2018-02-08T00:45:00.656Z,100880.84
2018-02-08T00:46:03.144Z,100876.97
2018-02-08T00:47:05.637Z,100888.01
2018-02-08T00:48:08.107Z,100879.36
2018-02-08T00:49:10.598Z,100888.93
2018-02-08T00:50:13.070Z,100885.32
2018-02-08T00:51:15.546Z,100886.75
2018-02-08T00:52:18.054Z,100887.62
2018-02-08T00:53:20.541Z,100894.20
2018-02-08T00:54:23.031Z,100894.91
2018-02-08T00:55:25.519Z,100889.30
2018-02-08T00:56:27.986Z,100892.94
2018-02-08T00:57:30.455Z,100890.33
2018-02-08T00:58:32.950Z,100888.78
2018-02-08T00:59:35.438Z,100891.47
2018-02-08T01:00:37.925Z,100890.95
2018-02-08T01:01:40.412Z,100891.59
2018-02-08T01:02:42.892Z,100890.82
2018-02-08T01:03:45.373Z,100884.91
2018-02-08T01:04:47.843Z,100889.95
2018-02-08T01:05:50.314Z,100886.80
2018-02-08T01:06:52.794Z,100885.98
2018-02-08T01:07:55.274Z,100885.58
2018-02-08T01:08:57.765Z,100890.87
2018-02-08T01:10:00.252Z,100891.13
2018-02-08T01:11:02.741Z,100892.27
2018-02-08T01:12:05.216Z,100890.99
2018-02-08T01:13:07.718Z,100889.76
2018-02-08T01:14:10.200Z,100892.75
2018-02-08T01:15:12.685Z,100888.68
2018-02-08T01:16:15.178Z,100891.91
2018-02-08T01:17:17.691Z,100887.97
2018-02-08T01:18:20.175Z,100889.15
2018-02-08T01:19:22.645Z,100893.84
2018-02-08T01:20:25.125Z,100893.59
2018-02-08T01:21:27.599Z,100893.48
2018-02-08T01:22:30.075Z,100895.20
2018-02-08T01:23:32.546Z,100897.25
2018-02-08T01:24:35.041Z,100892.72
2018-02-08T01:25:37.528Z,100903.53
2018-02-08T01:26:40.016Z,100898.59
2018-02-08T01:27:42.509Z,100901.87
2018-02-08T01:28:44.982Z,100900.17
2018-02-08T01:29:47.497Z,100895.02
2018-02-08T01:30:49.965Z,100897.69
2018-02-08T01:31:52.504Z,100886.59
2018-02-08T01:32:54.958Z,100894.22
2018-02-08T01:33:57.435Z,100895.48
2018-02-08T01:34:59.914Z,100897.33
2018-02-08T01:36:02.409Z,100894.59
2018-02-08T01:37:04.881Z,100898.67
2018-02-08T01:38:07.354Z,100896.17
2018-02-08T01:39:09.832Z,100895.56
2018-02-08T01:40:12.312Z,100898.95
2018-02-08T01:41:14.791Z,100895.64
2018-02-08T01:42:17.258Z,100891.84
2018-02-08T01:43:19.747Z,100888.12
2018-02-08T01:44:22.236Z,100895.20
2018-02-08T01:45:24.717Z,100895.55
2018-02-08T01:46:27.207Z,100892.27
2018-02-08T01:47:29.687Z,100895.80
2018-02-08T01:48:32.159Z,100895.88
2018-02-08T01:49:45.533Z,100896.16
2018-02-08T01:50:48.017Z,100895.11
2018-02-08T01:51:50.490Z,100896.33
2018-02-08T01:52:52.962Z,100895.52
2018-02-08T01:53:55.436Z,100896.06
2018-02-08T01:54:58.030Z,100897.41
2018-02-08T01:56:00.499Z,100897.84
2018-02-08T01:57:03.016Z,100895.80
2018-02-08T01:58:05.509Z,100898.02
2018-02-08T01:59:07.978Z,100900.63
2018-02-08T02:00:10.473Z,100896.46
2018-02-08T02:01:12.946Z,100902.05
2018-02-08T02:02:15.439Z,100906.30
2018-02-08T02:03:17.936Z,100898.75
2018-02-08T02:04:20.411Z,100900.63
2018-02-08T02:05:22.894Z,100902.84
2018-02-08T02:06:25.381Z,100901.94
2018-02-08T02:07:27.850Z,100903.10
2018-02-08T02:08:30.338Z,100908.05
2018-02-08T02:09:32.807Z,100900.88
2018-02-08T02:10:35.293Z,100899.38
2018-02-08T02:11:37.784Z,100900.08
2018-02-08T02:12:40.255Z,100899.02
2018-02-08T02:13:42.719Z,100901.33
2018-02-08T02:14:45.191Z,100901.61
2018-02-08T02:15:47.668Z,100898.16
2018-02-08T02:16:50.153Z,100893.44
2018-02-08T02:17:52.623Z,100901.16
2018-02-08T02:18:55.141Z,100900.50
2018-02-08T02:19:57.658Z,100894.67
2018-02-08T02:21:00.189Z,100905.31
2018-02-08T02:22:02.660Z,100899.56
2018-02-08T02:23:05.127Z,100894.50
2018-02-08T02:24:07.595Z,100896.19
2018-02-08T02:25:10.078Z,100903.19
2018-02-08T02:26:12.585Z,100903.38
2018-02-08T02:27:15.073Z,100904.26
2018-02-08T02:28:17.542Z,100896.98
2018-02-08T02:29:20.045Z,100895.58
2018-02-08T02:30:22.538Z,100901.43
2018-02-08T02:31:25.074Z,100895.39
2018-02-08T02:32:27.547Z,100895.67
2018-02-08T02:33:30.029Z,100894.76
2018-02-08T02:34:32.503Z,100893.45
2018-02-08T02:35:35.001Z,100896.11
2018-02-08T02:36:37.470Z,100893.17
2018-02-08T02:37:39.953Z,100887.14
2018-02-08T02:38:42.477Z,100895.05
2018-02-08T02:39:44.969Z,100893.78
2018-02-08T02:40:47.442Z,100891.41
2018-02-08T02:41:49.915Z,100884.77
2018-02-08T02:42:52.392Z,100887.40
2018-02-08T02:43:54.916Z,100892.48
2018-02-08T02:44:57.364Z,100887.77
2018-02-08T02:45:59.834Z,100887.03
2018-02-08T02:47:02.328Z,100888.78
2018-02-08T02:48:04.809Z,100891.20
2018-02-08T02:49:07.294Z,100887.73
2018-02-08T02:50:09.816Z,100887.91
2018-02-08T02:51:12.310Z,100884.42
2018-02-08T02:52:14.801Z,100885.50
2018-02-08T02:53:17.302Z,100886.91
2018-02-08T02:54:19.790Z,100885.88
2018-02-08T02:55:22.273Z,100888.30
2018-02-08T02:56:24.751Z,100887.53
2018-02-08T02:57:27.237Z,100891.28
2018-02-08T02:58:29.713Z,100896.20
2018-02-08T02:59:32.213Z,100890.06
2018-02-08T03:00:34.683Z,100892.83
2018-02-08T03:01:37.160Z,100899.72
2018-02-08T03:02:39.660Z,100900.70
2018-02-08T03:03:42.132Z,100901.86
2018-02-08T03:04:44.620Z,100901.69
2018-02-08T03:05:47.114Z,100901.68
2018-02-08T03:06:49.588Z,100896.01
2018-02-08T03:07:52.063Z,100890.50
2018-02-08T03:08:54.544Z,100896.61
2018-02-08T03:09:57.037Z,100897.50
2018-02-08T03:10:59.528Z,100898.30
2018-02-08T03:12:02.009Z,100902.73
2018-02-08T03:13:04.506Z,100899.87
2018-02-08T03:14:06.975Z,100900.75
2018-02-08T03:15:09.443Z,100902.81
2018-02-08T03:16:11.918Z,100910.33
2018-02-08T03:17:14.396Z,100902.13
2018-02-08T03:18:16.862Z,100891.47
2018-02-08T03:19:19.343Z,100900.27
2018-02-08T03:20:21.848Z,100901.34
2018-02-08T03:21:24.322Z,100900.45
2018-02-08T03:22:26.813Z,100898.75
2018-02-08T03:23:29.548Z,100896.97
2018-02-08T03:24:32.085Z,100904.31
2018-02-08T03:25:34.568Z,100906.66
2018-02-08T03:26:37.042Z,100913.83
2018-02-08T03:27:39.533Z,100912.03
2018-02-08T03:28:42.022Z,100915.99
2018-02-08T03:29:44.498Z,100914.28
2018-02-08T03:30:47.471Z,100919.43
2018-02-08T03:31:49.971Z,100916.92
2018-02-08T03:32:52.447Z,100918.60
2018-02-08T03:33:54.942Z,100917.47
2018-02-08T03:34:57.433Z,100911.97
2018-02-08T03:35:59.927Z,100915.03
2018-02-08T03:37:02.420Z,100914.37
2018-02-08T03:38:04.904Z,100915.69
2018-02-08T03:39:07.375Z,100919.30
2018-02-08T03:40:09.853Z,100924.18
2018-02-08T03:41:12.344Z,100920.91
2018-02-08T03:42:14.839Z,100924.73
2018-02-08T03:43:17.339Z,100926.55
2018-02-08T03:44:19.814Z,100926.43
2018-02-08T03:45:22.287Z,100927.90
2018-02-08T03:46:24.776Z,100924.28
2018-02-08T03:47:27.290Z,100920.02
2018-02-08T03:48:29.762Z,100924.34
2018-02-08T03:49:32.248Z,100927.95
2018-02-08T03:50:34.735Z,100929.30
2018-02-08T03:51:37.209Z,100935.11
2018-02-08T03:52:39.713Z,100934.57
2018-02-08T03:53:42.221Z,100925.60
2018-02-08T03:54:44.694Z,100933.22
2018-02-08T03:55:47.210Z,100930.89
2018-02-08T03:56:49.686Z,100933.62
2018-02-08T03:57:52.176Z,100932.13
2018-02-08T03:58:54.651Z,100936.03
2018-02-08T03:59:57.146Z,100934.42
2018-02-08T04:00:59.618Z,100931.08
2018-02-08T04:02:02.088Z,100929.39
2018-02-08T04:03:04.635Z,100931.80
2018-02-08T04:04:07.140Z,100937.81
2018-02-08T04:05:09.615Z,100940.99
2018-02-08T04:06:12.104Z,100936.98
2018-02-08T04:07:14.585Z,100935.78
2018-02-08T04:08:17.097Z,100934.72
2018-02-08T04:09:19.570Z,100931.44
2018-02-08T04:10:22.046Z,100934.80
2018-02-08T04:11:24.517Z,100933.01
2018-02-08T04:12:27.068Z,100933.38
2018-02-08T04:13:29.566Z,100931.84
2018-02-08T04:14:32.039Z,100932.24
2018-02-08T04:15:34.519Z,100932.34
2018-02-08T04:16:37.010Z,100928.47
2018-02-08T04:17:39.500Z,100931.75
2018-02-08T04:18:41.991Z,100931.41
2018-02-08T04:19:44.462Z,100933.82
2018-02-08T04:20:46.998Z,100943.28
2018-02-08T04:21:49.470Z,100941.13
2018-02-08T04:22:52.022Z,100934.87
2018-02-08T04:23:54.541Z,100940.99
2018-02-08T04:24:57.022Z,100941.94
2018-02-08T04:25:59.516Z,100946.39
2018-02-08T04:27:02.009Z,100944.20
2018-02-08T04:28:04.546Z,100944.97
2018-02-08T04:29:07.066Z,100946.65
2018-02-08T04:30:09.539Z,100946.46
2018-02-08T04:31:12.024Z,100946.20
2018-02-08T04:32:14.516Z,100954.70
2018-02-08T04:33:17.013Z,100949.30
2018-02-08T04:34:19.528Z,100950.47
2018-02-08T04:35:22.003Z,100951.06
2018-02-08T04:36:24.480Z,100948.72
2018-02-08T04:37:26.969Z,100951.75
2018-02-08T04:38:41.246Z,100954.30
2018-02-08T04:39:55.454Z,100950.40
2018-02-08T05:23:52.685Z,100955.91
2018-02-08T05:24:55.155Z,100956.34
2018-02-08T05:25:57.647Z,100955.17
2018-02-08T05:27:00.115Z,100959.91
2018-02-08T05:28:02.640Z,100956.98
2018-02-08T05:29:05.138Z,100954.67
2018-02-08T05:30:07.616Z,100963.55
2018-02-08T05:31:10.082Z,100958.13
2018-02-08T05:32:12.566Z,100957.33
2018-02-08T05:33:15.088Z,100960.09
2018-02-08T05:34:17.605Z,100955.77
2018-02-08T05:35:20.093Z,100955.00
2018-02-08T05:36:22.678Z,100956.61
2018-02-08T05:37:25.137Z,100956.94
2018-02-08T05:38:27.611Z,100961.16
2018-02-08T05:39:30.089Z,100958.89
2018-02-08T05:40:32.577Z,100957.47
2018-02-08T05:41:35.043Z,100963.38
2018-02-08T05:42:37.532Z,100964.86
2018-02-08T05:43:40.004Z,100970.00
2018-02-08T05:44:42.475Z,100963.08
2018-02-08T05:45:44.960Z,100965.30
2018-02-08T05:46:47.457Z,100972.08
2018-02-08T05:47:49.943Z,100972.83
2018-02-08T05:48:52.437Z,100966.45
2018-02-08T05:49:54.907Z,100967.94
2018-02-08T05:50:57.400Z,100967.22
2018-02-08T05:51:59.882Z,100972.25
2018-02-08T05:53:02.355Z,100970.09
2018-02-08T05:54:04.839Z,100972.28
2018-02-08T05:55:07.327Z,100973.77
2018-02-08T05:56:09.833Z,100977.36
2018-02-08T05:57:12.325Z,100978.03
2018-02-08T05:58:14.822Z,100974.69
2018-02-08T05:59:17.317Z,100973.83
2018-02-08T06:00:19.802Z,100979.77
2018-02-08T06:01:22.281Z,100973.20
2018-02-08T06:02:24.824Z,100974.80
2018-02-08T06:03:27.294Z,100975.17
2018-02-08T06:04:29.767Z,100974.62
2018-02-08T06:05:32.243Z,100978.75
2018-02-08T06:06:34.717Z,100981.75
2018-02-08T06:07:37.205Z,100982.62
2018-02-08T06:08:39.688Z,100989.17
2018-02-08T06:09:42.189Z,100991.09
2018-02-08T06:10:44.677Z,100995.00
2018-02-08T06:11:47.154Z,100997.53
2018-02-08T06:12:49.659Z,100997.72
2018-02-08T06:13:52.142Z,100999.94
2018-02-08T06:14:54.638Z,101000.63
2018-02-08T06:15:57.124Z,101002.05
2018-02-08T06:16:59.605Z,101002.06
2018-02-08T06:18:02.094Z,101000.95
2018-02-08T06:19:04.563Z,101010.92
2018-02-08T06:20:07.046Z,101009.55
2018-02-08T06:21:09.530Z,101006.37
2018-02-08T06:22:12.004Z,101007.20
2018-02-08T06:23:14.478Z,101009.99
2018-02-08T06:24:16.980Z,101014.70
2018-02-08T06:25:19.443Z,101009.98
2018-02-08T06:26:21.922Z,101018.05
2018-02-08T06:27:24.411Z,101017.24
2018-02-08T06:28:26.912Z,101019.08
2018-02-08T06:29:29.424Z,101010.69
2018-02-08T06:30:31.934Z,101016.63
2018-02-08T06:31:34.406Z,101013.33
2018-02-08T06:32:36.898Z,101015.23
2018-02-08T06:33:39.389Z,101024.28
2018-02-08T06:34:41.866Z,101024.53
2018-02-08T06:35:44.343Z,101018.33
2018-02-08T06:36:46.826Z,101022.52
2018-02-08T06:37:49.298Z,101019.70
2018-02-08T06:38:51.766Z,101019.64
2018-02-08T06:39:54.256Z,101017.92
2018-02-08T06:40:56.733Z,101020.22
2018-02-08T06:42:00.100Z,101016.37
2018-02-08T06:43:02.601Z,101022.45
2018-02-08T06:44:05.115Z,101023.50
2018-02-08T06:45:07.599Z,101017.05
2018-02-08T06:46:10.097Z,101019.66
2018-02-08T06:47:12.612Z,101020.59
2018-02-08T06:48:15.084Z,101021.51
2018-02-08T06:49:17.608Z,101020.52
2018-02-08T06:50:20.117Z,101015.83
2018-02-08T06:51:22.594Z,101020.89
2018-02-08T06:52:25.116Z,101018.59
2018-02-08T06:53:27.627Z,101016.22
2018-02-08T06:54:30.109Z,101023.84
2018-02-08T06:55:32.597Z,101023.95
2018-02-08T06:56:35.090Z,101017.28
2018-02-08T06:57:37.578Z,101021.08
2018-02-08T06:58:40.071Z,101019.76
2018-02-08T06:59:42.560Z,101024.43
2018-02-08T07:00:45.054Z,101023.70
2018-02-08T07:01:47.539Z,101028.25
2018-02-08T07:02:50.064Z,101024.23
2018-02-08T07:03:52.617Z,101025.91
2018-02-08T07:04:55.054Z,101027.52
2018-02-08T07:05:57.553Z,101028.25
2018-02-08T07:07:00.057Z,101031.05
2018-02-08T07:08:02.648Z,101030.13
2018-02-08T07:09:05.120Z,101030.37
2018-02-08T07:10:07.591Z,101029.67
2018-02-08T07:11:10.433Z,101030.42
2018-02-08T07:12:12.910Z,101033.06
2018-02-08T07:13:15.394Z,101036.91
2018-02-08T07:14:17.877Z,101041.42
2018-02-08T07:15:20.385Z,101037.16
2018-02-08T07:16:22.860Z,101039.56
2018-02-08T07:17:25.350Z,101042.70
2018-02-08T07:18:27.838Z,101047.01
2018-02-08T07:19:30.318Z,101050.87
2018-02-08T07:20:32.805Z,101047.88
2018-02-08T07:21:35.287Z,101052.12
2018-02-08T07:22:38.081Z,101054.78
2018-02-08T07:23:40.626Z,101054.45
2018-02-08T07:24:43.113Z,101060.62
2018-02-08T07:25:45.607Z,101063.42
2018-02-08T07:26:48.090Z,101063.69
2018-02-08T07:27:50.572Z,101056.34
2018-02-08T07:28:53.056Z,101055.11
2018-02-08T07:29:55.524Z,101059.14
2018-02-08T07:30:57.994Z,101057.82
2018-02-08T07:32:00.489Z,101056.45
2018-02-08T07:33:02.954Z,101057.11
2018-02-08T07:34:05.444Z,101059.27
2018-02-08T07:35:07.927Z,101060.58
2018-02-08T07:36:10.440Z,101064.13
2018-02-08T07:37:12.925Z,101066.42
2018-02-08T07:38:15.415Z,101063.61
2018-02-08T07:39:17.904Z,101066.45
2018-02-08T07:40:20.409Z,101060.96
2018-02-08T07:41:22.900Z,101060.95
2018-02-08T07:42:25.413Z,101058.41
2018-02-08T07:43:27.920Z,101059.05
2018-02-08T07:44:30.406Z,101058.94
2018-02-08T07:45:32.886Z,101060.02
2018-02-08T07:46:35.350Z,101055.56
2018-02-08T07:47:37.830Z,101051.28
2018-02-08T07:48:40.341Z,101047.63
2018-02-08T07:49:42.815Z,101057.19
2018-02-08T07:50:45.296Z,101055.25
2018-02-08T07:51:47.785Z,101062.16
2018-02-08T07:52:50.301Z,101059.06
2018-02-08T07:53:52.785Z,101058.23
2018-02-08T07:54:55.267Z,101057.15
2018-02-08T07:55:57.738Z,101047.09
2018-02-08T07:57:00.257Z,101056.56
2018-02-08T07:58:02.730Z,101062.12
2018-02-08T07:59:05.225Z,101060.28
2018-02-08T08:00:07.755Z,101062.98
2018-02-08T08:01:10.226Z,101058.28
2018-02-08T08:02:12.716Z,101056.59
2018-02-08T08:03:15.183Z,101062.66
2018-02-08T08:04:17.666Z,101053.53
2018-02-08T08:05:20.201Z,101051.74
2018-02-08T08:06:22.684Z,101050.28
2018-02-08T08:07:25.242Z,101052.28
2018-02-08T08:08:27.706Z,101053.36
2018-02-08T08:09:30.169Z,101052.20
2018-02-08T08:10:32.653Z,101046.97
2018-02-08T08:11:35.137Z,101050.20
2018-02-08T08:12:37.615Z,101055.48
2018-02-08T08:13:40.109Z,101054.22
2018-02-08T08:14:42.598Z,101056.21
2018-02-08T08:15:45.082Z,101058.70
2018-02-08T08:16:47.546Z,101060.09
2018-02-08T08:17:50.128Z,101058.52
2018-02-08T08:18:52.646Z,101055.66
2018-02-08T08:19:55.121Z,101063.73
2018-02-08T08:20:57.615Z,101057.70
2018-02-08T08:22:00.169Z,101063.59
2018-02-08T08:23:02.682Z,101052.27
2018-02-08T08:24:05.154Z,101059.23
2018-02-08T08:25:07.714Z,101057.06
2018-02-08T08:26:10.193Z,101063.34
2018-02-08T08:27:12.658Z,101066.94
2018-02-08T08:28:15.146Z,101064.36
2018-02-08T08:29:17.645Z,101060.68
2018-02-08T08:30:20.144Z,101057.33
2018-02-08T08:31:22.626Z,101062.02
2018-02-08T08:32:25.109Z,101057.77
2018-02-08T08:33:27.991Z,101064.81
2018-02-08T08:34:30.499Z,101062.77
2018-02-08T08:35:33.007Z,101065.22
2018-02-08T08:36:35.492Z,101061.48
2018-02-08T08:37:37.969Z,101065.09
2018-02-08T08:38:40.485Z,101071.59
2018-02-08T08:39:43.075Z,101073.88
2018-02-08T08:40:45.595Z,101069.39
2018-02-08T08:41:48.083Z,101075.87
2018-02-08T08:42:53.604Z,101071.31
2018-02-08T08:43:56.395Z,101068.39
2018-02-08T08:44:58.863Z,101071.33
2018-02-08T08:46:05.125Z,101072.61
2018-02-08T08:47:07.664Z,101074.02
2018-02-08T08:48:10.126Z,101073.84
2018-02-08T08:49:12.598Z,101074.13
2018-02-08T08:50:15.080Z,101069.22
2018-02-08T08:51:17.561Z,101072.66
2018-02-08T08:52:20.046Z,101075.45
2018-02-08T08:53:22.529Z,101070.19
2018-02-08T08:54:25.015Z,101073.20
2018-02-08T08:55:27.596Z,101075.55
2018-02-08T08:56:30.148Z,101077.30
2018-02-08T08:57:32.652Z,101075.16
2018-02-08T08:58:35.129Z,101083.58
2018-02-08T08:59:37.598Z,101087.79
2018-02-08T09:00:40.108Z,101077.77
2018-02-08T09:01:42.593Z,101065.92
2018-02-08T09:02:45.070Z,101076.74
2018-02-08T09:03:47.664Z,101079.55
2018-02-08T09:04:50.225Z,101081.80
2018-02-08T09:05:52.722Z,101081.58
2018-02-08T09:06:55.207Z,101080.30
2018-02-08T09:07:57.694Z,101085.86
2018-02-08T09:09:00.189Z,101085.88
2018-02-08T09:10:02.679Z,101087.27
2018-02-08T09:11:05.162Z,101086.71
2018-02-08T09:12:07.659Z,101088.73
2018-02-08T09:13:10.124Z,101085.22
2018-02-08T09:14:12.604Z,101085.08
2018-02-08T09:15:15.183Z,101084.72
2018-02-08T09:16:17.676Z,101096.74
2018-02-08T09:17:20.157Z,101086.45
2018-02-08T09:18:22.774Z,101091.98
2018-02-08T09:19:25.283Z,101091.69
2018-02-08T09:20:27.764Z,101093.25
2018-02-08T09:21:30.224Z,101095.00
2018-02-08T09:22:32.694Z,101097.36
2018-02-08T09:23:35.190Z,101086.91
2018-02-08T09:24:37.690Z,101085.95
2018-02-08T09:25:40.177Z,101083.61
2018-02-08T09:26:42.649Z,101085.91
2018-02-08T09:27:45.151Z,101084.25
2018-02-08T09:28:47.642Z,101091.25
2018-02-08T09:29:50.139Z,101092.64
2018-02-08T09:30:52.794Z,101084.67
2018-02-08T09:31:55.357Z,101080.67
2018-02-08T09:32:57.836Z,101082.80
2018-02-08T09:34:00.312Z,101078.92
2018-02-08T09:35:02.927Z,101085.62
2018-02-08T09:36:05.416Z,101087.13
2018-02-08T09:37:07.909Z,101086.43
2018-02-08T09:38:10.434Z,101085.88
2018-02-08T09:39:12.896Z,101087.19
2018-02-08T09:40:15.382Z,101081.80
2018-02-08T09:41:17.850Z,101082.49
2018-02-08T09:42:20.334Z,101079.36
2018-02-08T09:43:22.826Z,101087.07
2018-02-08T09:44:26.221Z,101085.30
2018-02-08T09:45:32.746Z,101076.37
2018-02-08T09:46:36.866Z,101079.06
2018-02-08T09:47:39.334Z,101080.73
2018-02-08T09:48:41.964Z,101087.78
2018-02-08T09:49:44.447Z,101079.82
2018-02-08T09:50:50.963Z,101078.16
2018-02-08T09:51:54.251Z,101077.00
2018-02-08T09:52:56.715Z,101077.95
2018-02-08T09:53:59.193Z,101075.64
2018-02-08T09:55:01.675Z,101081.32
2018-02-08T09:56:04.143Z,101084.92
2018-02-08T09:57:06.698Z,101075.07
2018-02-08T09:58:09.148Z,101080.97
2018-02-08T09:59:11.614Z,101069.30
2018-02-08T10:00:14.085Z,101080.82
2018-02-08T10:01:16.581Z,101080.98
2018-02-08T10:02:19.063Z,101085.05
2018-02-08T10:03:21.545Z,101083.65
2018-02-08T10:04:24.062Z,101082.69
2018-02-08T10:05:26.557Z,101076.48
2018-02-08T10:06:29.031Z,101083.81
2018-02-08T10:07:31.537Z,101076.77
2018-02-08T10:08:34.002Z,101073.99
2018-02-08T10:09:36.471Z,101076.52
2018-02-08T10:10:38.947Z,101071.92
2018-02-08T10:11:41.443Z,101075.75
2018-02-08T10:12:43.923Z,101079.06
2018-02-08T10:13:46.405Z,101075.37
2018-02-08T10:14:48.886Z,101080.77
2018-02-08T10:15:51.372Z,101079.08
2018-02-08T10:16:53.862Z,101084.30
2018-02-08T10:17:56.533Z,101080.17
2018-02-08T10:18:59.050Z,101085.30
2018-02-08T10:20:03.071Z,101079.09
2018-02-08T10:21:06.203Z,101080.41
2018-02-08T10:22:08.800Z,101080.24
2018-02-08T10:23:11.299Z,101075.25
2018-02-08T10:24:13.770Z,101072.71
2018-02-08T10:25:16.249Z,101065.55
2018-02-08T10:26:18.742Z,101063.56
2018-02-08T10:27:21.230Z,101069.78
2018-02-08T10:28:23.707Z,101066.20
2018-02-08T10:29:26.194Z,101071.05
2018-02-08T10:30:28.752Z,101068.62
2018-02-08T10:31:31.238Z,101065.75
2018-02-08T10:32:33.707Z,101070.16
2018-02-08T10:33:36.180Z,101071.18
2018-02-08T10:34:38.698Z,101068.52
2018-02-08T10:35:41.377Z,101069.73
2018-02-08T10:36:43.883Z,101060.59
2018-02-08T10:37:46.406Z,101071.04
2018-02-08T10:38:48.945Z,101063.48
2018-02-08T10:39:51.437Z,101063.80
2018-02-08T10:40:53.903Z,101056.38
2018-02-08T10:41:56.366Z,101057.30
2018-02-08T10:42:58.877Z,101063.16
2018-02-08T10:44:01.354Z,101064.22
2018-02-08T10:45:03.842Z,101064.06
2018-02-08T10:46:06.412Z,101062.23
2018-02-08T10:47:08.879Z,101059.51
2018-02-08T10:48:11.386Z,101064.14
2018-02-08T10:49:13.866Z,101059.52
2018-02-08T10:50:16.402Z,101053.42
2018-02-08T10:51:18.863Z,101046.92
2018-02-08T10:52:21.376Z,101049.45
2018-02-08T10:53:23.879Z,101045.53
2018-02-08T10:54:26.377Z,101045.62
2018-02-08T10:55:28.867Z,101047.72
2018-02-08T10:56:31.463Z,101042.23
2018-02-08T10:57:33.934Z,101053.90
2018-02-08T10:58:36.425Z,101063.20
2018-02-08T10:59:38.906Z,101057.63
2018-02-08T11:00:41.384Z,101053.33
2018-02-08T11:01:43.865Z,101049.17
2018-02-08T11:02:46.345Z,101056.06
2018-02-08T11:03:48.811Z,101045.79
2018-02-08T11:04:51.307Z,101044.41
2018-02-08T11:05:53.783Z,101045.17
2018-02-08T11:06:56.273Z,101045.39
2018-02-08T11:07:58.754Z,101046.33
2018-02-08T11:09:01.227Z,101037.91
2018-02-08T11:10:03.694Z,101048.11
2018-02-08T11:11:06.181Z,101044.48
2018-02-08T11:12:08.663Z,101039.81
2018-02-08T11:13:11.150Z,101028.73
2018-02-08T11:14:13.650Z,101036.88
2018-02-08T11:15:16.143Z,101030.98
2018-02-08T11:16:18.633Z,101033.48
2018-02-08T11:17:21.104Z,101033.23
2018-02-08T11:18:23.575Z,101034.95
2018-02-08T11:19:26.049Z,101034.81
2018-02-08T11:20:28.534Z,101032.73
2018-02-08T11:21:31.013Z,101033.97
2018-02-08T11:22:33.497Z,101035.45
2018-02-08T11:23:35.981Z,101035.05
2018-02-08T11:24:38.455Z,101036.41
2018-02-08T11:25:40.937Z,101029.14
2018-02-08T11:26:43.416Z,101031.04
2018-02-08T11:27:45.909Z,101024.89
2018-02-08T11:28:48.401Z,101026.89
2018-02-08T11:29:50.888Z,101026.87
2018-02-08T11:30:53.386Z,101030.02
2018-02-08T11:31:55.854Z,101033.95
2018-02-08T11:32:58.332Z,101028.98
2018-02-08T11:34:00.824Z,101023.47
2018-02-08T11:35:03.304Z,101029.73
2018-02-08T11:36:05.782Z,101026.08
2018-02-08T11:37:08.267Z,101021.75
2018-02-08T11:38:10.743Z,101028.45
2018-02-08T11:39:13.309Z,101021.65
2018-02-08T11:40:15.881Z,101028.50
2018-02-08T11:41:18.376Z,101021.14
2018-02-08T11:42:20.864Z,101023.02
2018-02-08T11:43:23.372Z,101024.67
2018-02-08T11:44:25.905Z,101027.95
2018-02-08T11:45:28.664Z,101011.08
2018-02-08T11:46:31.164Z,101025.29
2018-02-08T11:47:33.655Z,101028.19
2018-02-08T11:48:36.141Z,101028.92
2018-02-08T11:49:38.637Z,101025.11
2018-02-08T11:50:41.123Z,101022.72
2018-02-08T11:51:43.704Z,101017.65
2018-02-08T11:52:46.174Z,101021.73
2018-02-08T11:53:48.683Z,101020.58
2018-02-08T11:54:51.168Z,101030.85
2018-02-08T11:55:53.679Z,101021.70
2018-02-08T11:56:56.849Z,101024.92
2018-02-08T11:57:59.342Z,101028.70
2018-02-08T11:59:01.850Z,101020.30
2018-02-08T12:00:04.341Z,101017.98
2018-02-08T12:01:06.837Z,101025.29
2018-02-08T12:02:09.329Z,101022.56
2018-02-08T12:03:11.929Z,101011.68
2018-02-08T12:04:14.336Z,101015.11
2018-02-08T12:05:16.835Z,101014.18
2018-02-08T12:06:19.383Z,101012.64
2018-02-08T12:07:21.901Z,101014.67
2018-02-08T12:08:24.402Z,101009.66
2018-02-08T12:09:26.896Z,101010.98
2018-02-08T12:10:29.371Z,101014.91
2018-02-08T12:11:31.853Z,101016.41
2018-02-08T12:12:34.322Z,101015.25
2018-02-08T12:13:36.842Z,101020.80
2018-02-08T12:14:40.551Z,101022.04
2018-02-08T12:15:43.044Z,101013.35
2018-02-08T12:16:45.512Z,101012.67
2018-02-08T12:17:47.982Z,101008.34
2018-02-08T12:18:50.476Z,101002.04
2018-02-08T12:19:52.959Z,101009.61
2018-02-08T12:20:55.445Z,101011.42
2018-02-08T12:21:57.944Z,101014.13
2018-02-08T12:23:00.422Z,101007.97
2018-02-08T12:24:02.921Z,101004.13
2018-02-08T12:25:05.419Z,101000.53
2018-02-08T12:26:07.919Z,101000.27
2018-02-08T12:27:10.417Z,101000.98
2018-02-08T12:28:12.916Z,101000.34
2018-02-08T12:29:15.448Z,101003.39
2018-02-08T12:30:17.927Z,100998.55
2018-02-08T12:31:20.429Z,100990.25
2018-02-08T12:32:22.919Z,100993.37
2018-02-08T12:33:25.449Z,100991.71
2018-02-08T12:34:27.961Z,100995.28
2018-02-08T12:35:30.461Z,100988.92
2018-02-08T12:36:32.956Z,100998.08